sensor_id;sensor_type;location;lat;lon;timestamp;temperature;humidity
65404;DHT22;52014;52.088;5.096;2023-05-23T00:00:36;17.30;99.90
65404;DHT22;52014;52.088;5.096;2023-05-23T00:03:02;17.30;99.90
65404;DHT22;52014;52.088;5.096;2023-05-23T00:05:28;17.30;99.90
65404;DHT22;52014;52.088;5.096;2023-05-23T00:07:54;17.30;99.90
65404;DHT22;52014;52.088;5.096;2023-05-23T00:10:20;17.30;99.90
65404;DHT22;52014;52.088;5.096;2023-05-23T00:12:46;17.30;99.90
65404;DHT22;52014;52.088;5.096;2023-05-23T00:15:12;17.30;99.90
65404;DHT22;52014;52.088;5.096;2023-05-23T00:17:38;17.30;99.90
65404;DHT22;52014;52.088;5.096;2023-05-23T00:20:04;17.30;99.90
65404;DHT22;52014;52.088;5.096;2023-05-23T00:22:30;17.30;99.90
65404;DHT22;52014;52.088;5.096;2023-05-23T00:24:55;17.20;99.90
65404;DHT22;52014;52.088;5.096;2023-05-23T00:27:22;17.20;99.90
65404;DHT22;52014;52.088;5.096;2023-05-23T00:29:47;17.20;99.90
65404;DHT22;52014;52.088;5.096;2023-05-23T00:32:13;17.20;99.90
65404;DHT22;52014;52.088;5.096;2023-05-23T00:34:38;17.20;99.90
65404;DHT22;52014;52.088;5.096;2023-05-23T00:37:04;17.20;99.90
65404;DHT22;52014;52.088;5.096;2023-05-23T00:39:29;17.20;99.90
65404;DHT22;52014;52.088;5.096;2023-05-23T00:41:54;17.20;99.90
65404;DHT22;52014;52.088;5.096;2023-05-23T00:44:20;17.10;99.90
65404;DHT22;52014;52.088;5.096;2023-05-23T00:46:46;17.10;99.90
65404;DHT22;52014;52.088;5.096;2023-05-23T00:49:13;17.10;99.90
65404;DHT22;52014;52.088;5.096;2023-05-23T00:51:39;17.10;99.90
65404;DHT22;52014;52.088;5.096;2023-05-23T00:54:07;17.10;99.90
65404;DHT22;52014;52.088;5.096;2023-05-23T00:56:33;17.10;99.90
65404;DHT22;52014;52.088;5.096;2023-05-23T00:58:59;17.10;99.90
65404;DHT22;52014;52.088;5.096;2023-05-23T01:01:25;17.00;99.90
65404;DHT22;52014;52.088;5.096;2023-05-23T01:03:51;17.00;99.90
65404;DHT22;52014;52.088;5.096;2023-05-23T01:06:17;17.00;99.90
65404;DHT22;52014;52.088;5.096;2023-05-23T01:08:42;16.90;99.90
65404;DHT22;52014;52.088;5.096;2023-05-23T01:11:14;16.90;99.90
65404;DHT22;52014;52.088;5.096;2023-05-23T01:13:42;16.90;99.90
65404;DHT22;52014;52.088;5.096;2023-05-23T01:16:12;16.90;99.90
65404;DHT22;52014;52.088;5.096;2023-05-23T01:18:39;16.80;99.90
65404;DHT22;52014;52.088;5.096;2023-05-23T01:21:11;16.80;99.90
65404;DHT22;52014;52.088;5.096;2023-05-23T01:26:12;16.80;99.90
65404;DHT22;52014;52.088;5.096;2023-05-23T01:28:44;16.80;99.90
65404;DHT22;52014;52.088;5.096;2023-05-23T01:31:10;16.80;99.90
65404;DHT22;52014;52.088;5.096;2023-05-23T01:33:36;16.80;99.90
65404;DHT22;52014;52.088;5.096;2023-05-23T01:36:02;16.80;99.90
65404;DHT22;52014;52.088;5.096;2023-05-23T01:38:28;16.80;99.90
65404;DHT22;52014;52.088;5.096;2023-05-23T01:40:53;16.80;99.90
65404;DHT22;52014;52.088;5.096;2023-05-23T01:43:19;16.80;99.90
65404;DHT22;52014;52.088;5.096;2023-05-23T01:45:45;16.80;99.90
65404;DHT22;52014;52.088;5.096;2023-05-23T01:48:11;16.80;99.90
65404;DHT22;52014;52.088;5.096;2023-05-23T01:50:37;16.80;99.90
65404;DHT22;52014;52.088;5.096;2023-05-23T01:53:03;16.70;99.90
65404;DHT22;52014;52.088;5.096;2023-05-23T01:55:29;16.70;99.90
65404;DHT22;52014;52.088;5.096;2023-05-23T01:57:55;16.70;99.90
65404;DHT22;52014;52.088;5.096;2023-05-23T02:00:21;16.80;99.90
65404;DHT22;52014;52.088;5.096;2023-05-23T02:02:47;16.70;99.90
65404;DHT22;52014;52.088;5.096;2023-05-23T02:05:12;16.70;99.90
65404;DHT22;52014;52.088;5.096;2023-05-23T02:07:38;16.60;99.90
65404;DHT22;52014;52.088;5.096;2023-05-23T02:10:07;16.60;99.90
65404;DHT22;52014;52.088;5.096;2023-05-23T02:12:33;16.70;99.90
65404;DHT22;52014;52.088;5.096;2023-05-23T02:14:58;16.60;99.90
65404;DHT22;52014;52.088;5.096;2023-05-23T02:17:30;16.60;99.90
65404;DHT22;52014;52.088;5.096;2023-05-23T02:19:55;16.60;99.90
65404;DHT22;52014;52.088;5.096;2023-05-23T02:22:24;16.60;99.90
65404;DHT22;52014;52.088;5.096;2023-05-23T02:24:52;16.60;99.90
65404;DHT22;52014;52.088;5.096;2023-05-23T02:27:17;16.60;99.90
65404;DHT22;52014;52.088;5.096;2023-05-23T02:29:43;16.60;99.90
65404;DHT22;52014;52.088;5.096;2023-05-23T02:32:08;16.60;99.90
65404;DHT22;52014;52.088;5.096;2023-05-23T02:34:34;16.60;99.90
65404;DHT22;52014;52.088;5.096;2023-05-23T02:37:00;16.60;99.90
65404;DHT22;52014;52.088;5.096;2023-05-23T02:39:25;16.60;99.90
65404;DHT22;52014;52.088;5.096;2023-05-23T02:41:51;16.60;99.90
65404;DHT22;52014;52.088;5.096;2023-05-23T02:44:16;16.60;99.90
65404;DHT22;52014;52.088;5.096;2023-05-23T02:46:44;16.60;99.90
65404;DHT22;52014;52.088;5.096;2023-05-23T02:49:09;16.50;99.90
65404;DHT22;52014;52.088;5.096;2023-05-23T02:51:35;16.50;99.90
65404;DHT22;52014;52.088;5.096;2023-05-23T02:54:00;16.50;99.90
65404;DHT22;52014;52.088;5.096;2023-05-23T02:56:26;16.50;99.90
65404;DHT22;52014;52.088;5.096;2023-05-23T02:58:52;16.50;99.90
65404;DHT22;52014;52.088;5.096;2023-05-23T03:01:17;16.50;99.90
65404;DHT22;52014;52.088;5.096;2023-05-23T03:03:43;16.50;99.90
65404;DHT22;52014;52.088;5.096;2023-05-23T03:06:08;16.50;99.90
65404;DHT22;52014;52.088;5.096;2023-05-23T03:08:41;16.50;99.90
65404;DHT22;52014;52.088;5.096;2023-05-23T03:11:07;16.40;99.90
65404;DHT22;52014;52.088;5.096;2023-05-23T03:13:33;16.50;99.90
65404;DHT22;52014;52.088;5.096;2023-05-23T03:15:58;16.40;99.90
65404;DHT22;52014;52.088;5.096;2023-05-23T03:18:24;16.30;99.90
65404;DHT22;52014;52.088;5.096;2023-05-23T03:20:49;16.30;99.90
65404;DHT22;52014;52.088;5.096;2023-05-23T03:23:15;16.30;99.90
65404;DHT22;52014;52.088;5.096;2023-05-23T03:25:41;16.30;99.90
65404;DHT22;52014;52.088;5.096;2023-05-23T03:28:07;16.20;99.90
65404;DHT22;52014;52.088;5.096;2023-05-23T03:30:32;16.20;99.90
65404;DHT22;52014;52.088;5.096;2023-05-23T03:32:58;16.20;99.90
65404;DHT22;52014;52.088;5.096;2023-05-23T03:35:23;16.20;99.90
65404;DHT22;52014;52.088;5.096;2023-05-23T03:37:48;16.20;99.90
65404;DHT22;52014;52.088;5.096;2023-05-23T03:40:14;16.10;99.90
65404;DHT22;52014;52.088;5.096;2023-05-23T03:42:39;16.10;99.90
65404;DHT22;52014;52.088;5.096;2023-05-23T03:45:05;16.00;99.90
65404;DHT22;52014;52.088;5.096;2023-05-23T03:47:31;16.10;99.90
65404;DHT22;52014;52.088;5.096;2023-05-23T03:49:56;16.00;99.90
65404;DHT22;52014;52.088;5.096;2023-05-23T03:52:22;16.00;99.90
65404;DHT22;52014;52.088;5.096;2023-05-23T03:54:47;15.90;99.90
65404;DHT22;52014;52.088;5.096;2023-05-23T03:57:12;15.90;99.90
65404;DHT22;52014;52.088;5.096;2023-05-23T03:59:38;16.00;99.90
65404;DHT22;52014;52.088;5.096;2023-05-23T04:02:03;16.00;99.90
65404;DHT22;52014;52.088;5.096;2023-05-23T04:04:29;15.90;99.90
65404;DHT22;52014;52.088;5.096;2023-05-23T04:06:55;15.90;99.90
65404;DHT22;52014;52.088;5.096;2023-05-23T04:09:20;15.90;99.90
65404;DHT22;52014;52.088;5.096;2023-05-23T04:11:46;15.90;99.90
65404;DHT22;52014;52.088;5.096;2023-05-23T04:14:12;15.80;99.90
65404;DHT22;52014;52.088;5.096;2023-05-23T04:16:38;15.80;99.90
65404;DHT22;52014;52.088;5.096;2023-05-23T04:19:05;15.80;99.90
65404;DHT22;52014;52.088;5.096;2023-05-23T04:21:31;15.80;99.90
65404;DHT22;52014;52.088;5.096;2023-05-23T04:23:57;15.70;99.90
65404;DHT22;52014;52.088;5.096;2023-05-23T04:26:22;15.70;99.90
65404;DHT22;52014;52.088;5.096;2023-05-23T04:28:48;15.70;99.90
65404;DHT22;52014;52.088;5.096;2023-05-23T04:31:14;15.60;99.90
65404;DHT22;52014;52.088;5.096;2023-05-23T04:33:39;15.60;99.90
65404;DHT22;52014;52.088;5.096;2023-05-23T04:36:05;15.60;99.90
65404;DHT22;52014;52.088;5.096;2023-05-23T04:38:33;15.50;99.90
65404;DHT22;52014;52.088;5.096;2023-05-23T04:40:59;15.50;99.90
65404;DHT22;52014;52.088;5.096;2023-05-23T04:43:24;15.50;99.90
65404;DHT22;52014;52.088;5.096;2023-05-23T04:45:51;15.40;99.90
65404;DHT22;52014;52.088;5.096;2023-05-23T04:48:21;15.40;99.90
65404;DHT22;52014;52.088;5.096;2023-05-23T04:50:47;15.40;99.90
65404;DHT22;52014;52.088;5.096;2023-05-23T04:53:15;15.50;99.90
65404;DHT22;52014;52.088;5.096;2023-05-23T04:55:40;15.40;99.90
65404;DHT22;52014;52.088;5.096;2023-05-23T04:58:05;15.40;99.90
65404;DHT22;52014;52.088;5.096;2023-05-23T05:00:32;15.30;99.90
65404;DHT22;52014;52.088;5.096;2023-05-23T05:02:57;15.30;99.90
65404;DHT22;52014;52.088;5.096;2023-05-23T05:05:22;15.30;99.90
65404;DHT22;52014;52.088;5.096;2023-05-23T05:07:49;15.10;99.90
65404;DHT22;52014;52.088;5.096;2023-05-23T05:10:15;15.20;99.90
65404;DHT22;52014;52.088;5.096;2023-05-23T05:12:43;15.10;99.90
65404;DHT22;52014;52.088;5.096;2023-05-23T05:15:11;15.20;99.90
65404;DHT22;52014;52.088;5.096;2023-05-23T05:17:36;15.30;99.90
65404;DHT22;52014;52.088;5.096;2023-05-23T05:20:03;15.20;99.90
65404;DHT22;52014;52.088;5.096;2023-05-23T05:22:36;15.20;99.90
65404;DHT22;52014;52.088;5.096;2023-05-23T05:25:05;15.20;99.90
65404;DHT22;52014;52.088;5.096;2023-05-23T05:27:31;15.20;99.90
65404;DHT22;52014;52.088;5.096;2023-05-23T05:29:57;15.00;99.90
65404;DHT22;52014;52.088;5.096;2023-05-23T05:32:24;15.00;99.90
65404;DHT22;52014;52.088;5.096;2023-05-23T05:34:49;15.10;99.90
65404;DHT22;52014;52.088;5.096;2023-05-23T05:37:15;15.10;99.90
65404;DHT22;52014;52.088;5.096;2023-05-23T05:39:40;15.10;99.90
65404;DHT22;52014;52.088;5.096;2023-05-23T05:42:06;15.10;99.90
65404;DHT22;52014;52.088;5.096;2023-05-23T05:44:31;15.10;99.90
65404;DHT22;52014;52.088;5.096;2023-05-23T05:46:57;15.10;99.90
65404;DHT22;52014;52.088;5.096;2023-05-23T05:49:22;15.10;99.90
65404;DHT22;52014;52.088;5.096;2023-05-23T05:51:47;15.10;99.90
65404;DHT22;52014;52.088;5.096;2023-05-23T05:54:13;15.00;99.90
65404;DHT22;52014;52.088;5.096;2023-05-23T05:56:38;15.10;99.90
65404;DHT22;52014;52.088;5.096;2023-05-23T05:59:04;15.00;99.90
65404;DHT22;52014;52.088;5.096;2023-05-23T06:01:29;15.00;99.90
65404;DHT22;52014;52.088;5.096;2023-05-23T06:03:55;15.00;99.90
65404;DHT22;52014;52.088;5.096;2023-05-23T06:06:20;15.00;99.90
65404;DHT22;52014;52.088;5.096;2023-05-23T06:08:46;14.90;99.90
65404;DHT22;52014;52.088;5.096;2023-05-23T06:11:12;14.90;99.90
65404;DHT22;52014;52.088;5.096;2023-05-23T06:13:37;14.80;99.90
65404;DHT22;52014;52.088;5.096;2023-05-23T06:16:03;14.80;99.90
65404;DHT22;52014;52.088;5.096;2023-05-23T06:18:29;14.80;99.90
65404;DHT22;52014;52.088;5.096;2023-05-23T06:20:54;14.80;99.90
65404;DHT22;52014;52.088;5.096;2023-05-23T06:23:20;14.90;99.90
65404;DHT22;52014;52.088;5.096;2023-05-23T06:25:45;14.80;99.90
65404;DHT22;52014;52.088;5.096;2023-05-23T06:28:11;14.90;99.90
65404;DHT22;52014;52.088;5.096;2023-05-23T06:30:36;14.90;99.90
65404;DHT22;52014;52.088;5.096;2023-05-23T06:33:03;14.90;99.90
65404;DHT22;52014;52.088;5.096;2023-05-23T06:35:28;14.90;99.90
65404;DHT22;52014;52.088;5.096;2023-05-23T06:37:54;15.00;99.90
65404;DHT22;52014;52.088;5.096;2023-05-23T06:40:20;14.90;99.90
65404;DHT22;52014;52.088;5.096;2023-05-23T06:42:45;14.90;99.90
65404;DHT22;52014;52.088;5.096;2023-05-23T06:45:11;14.90;99.90
65404;DHT22;52014;52.088;5.096;2023-05-23T06:47:37;15.00;99.90
65404;DHT22;52014;52.088;5.096;2023-05-23T06:50:02;15.00;99.90
65404;DHT22;52014;52.088;5.096;2023-05-23T06:52:28;15.00;99.90
65404;DHT22;52014;52.088;5.096;2023-05-23T06:54:54;15.00;99.90
65404;DHT22;52014;52.088;5.096;2023-05-23T06:57:19;15.00;99.90
65404;DHT22;52014;52.088;5.096;2023-05-23T06:59:45;15.00;99.90
65404;DHT22;52014;52.088;5.096;2023-05-23T07:02:10;15.00;99.90
65404;DHT22;52014;52.088;5.096;2023-05-23T07:04:36;14.90;99.90
65404;DHT22;52014;52.088;5.096;2023-05-23T07:07:01;14.90;99.90
65404;DHT22;52014;52.088;5.096;2023-05-23T07:09:27;14.80;99.90
65404;DHT22;52014;52.088;5.096;2023-05-23T07:11:52;14.70;99.90
65404;DHT22;52014;52.088;5.096;2023-05-23T07:14:17;14.70;99.90
65404;DHT22;52014;52.088;5.096;2023-05-23T07:16:44;14.70;99.90
65404;DHT22;52014;52.088;5.096;2023-05-23T07:19:09;14.70;99.90
65404;DHT22;52014;52.088;5.096;2023-05-23T07:21:35;14.70;99.90
65404;DHT22;52014;52.088;5.096;2023-05-23T07:24:00;14.70;99.90
65404;DHT22;52014;52.088;5.096;2023-05-23T07:26:26;14.80;99.90
65404;DHT22;52014;52.088;5.096;2023-05-23T07:28:51;14.80;99.90
65404;DHT22;52014;52.088;5.096;2023-05-23T07:31:17;14.90;99.90
65404;DHT22;52014;52.088;5.096;2023-05-23T07:33:42;14.80;99.90
65404;DHT22;52014;52.088;5.096;2023-05-23T07:36:09;14.90;99.90
65404;DHT22;52014;52.088;5.096;2023-05-23T07:38:35;14.90;99.90
65404;DHT22;52014;52.088;5.096;2023-05-23T07:41:00;15.00;99.90
65404;DHT22;52014;52.088;5.096;2023-05-23T07:43:26;15.00;99.90
65404;DHT22;52014;52.088;5.096;2023-05-23T07:45:51;15.00;99.90
65404;DHT22;52014;52.088;5.096;2023-05-23T07:48:17;15.20;99.90
65404;DHT22;52014;52.088;5.096;2023-05-23T07:50:42;15.20;99.90
65404;DHT22;52014;52.088;5.096;2023-05-23T07:53:07;15.20;99.90
65404;DHT22;52014;52.088;5.096;2023-05-23T07:55:33;15.30;99.90
65404;DHT22;52014;52.088;5.096;2023-05-23T07:57:58;15.40;99.90
65404;DHT22;52014;52.088;5.096;2023-05-23T08:00:24;15.40;99.90
65404;DHT22;52014;52.088;5.096;2023-05-23T08:02:49;15.40;99.90
65404;DHT22;52014;52.088;5.096;2023-05-23T08:05:15;15.40;99.90
65404;DHT22;52014;52.088;5.096;2023-05-23T08:07:40;15.30;99.90
65404;DHT22;52014;52.088;5.096;2023-05-23T08:10:06;15.30;99.90
65404;DHT22;52014;52.088;5.096;2023-05-23T08:12:32;15.50;99.90
65404;DHT22;52014;52.088;5.096;2023-05-23T08:14:58;15.60;99.90
65404;DHT22;52014;52.088;5.096;2023-05-23T08:17:23;15.60;99.90
65404;DHT22;52014;52.088;5.096;2023-05-23T08:19:49;15.80;99.90
65404;DHT22;52014;52.088;5.096;2023-05-23T08:22:14;16.10;99.90
65404;DHT22;52014;52.088;5.096;2023-05-23T08:24:40;16.30;99.90
65404;DHT22;52014;52.088;5.096;2023-05-23T08:27:05;16.20;99.90
65404;DHT22;52014;52.088;5.096;2023-05-23T08:29:32;16.20;99.90
65404;DHT22;52014;52.088;5.096;2023-05-23T08:31:59;16.00;99.90
65404;DHT22;52014;52.088;5.096;2023-05-23T08:34:24;16.00;99.90
65404;DHT22;52014;52.088;5.096;2023-05-23T08:36:50;16.00;99.90
65404;DHT22;52014;52.088;5.096;2023-05-23T08:39:16;16.00;99.90
65404;DHT22;52014;52.088;5.096;2023-05-23T08:41:42;16.10;99.90
65404;DHT22;52014;52.088;5.096;2023-05-23T08:44:08;16.00;99.90
65404;DHT22;52014;52.088;5.096;2023-05-23T08:46:33;16.00;99.90
65404;DHT22;52014;52.088;5.096;2023-05-23T08:49:03;16.00;99.90
65404;DHT22;52014;52.088;5.096;2023-05-23T08:51:29;15.90;99.90
65404;DHT22;52014;52.088;5.096;2023-05-23T08:53:55;15.80;99.90
65404;DHT22;52014;52.088;5.096;2023-05-23T08:56:22;15.90;99.90
65404;DHT22;52014;52.088;5.096;2023-05-23T08:58:49;15.90;99.90
65404;DHT22;52014;52.088;5.096;2023-05-23T09:01:15;16.10;99.90
65404;DHT22;52014;52.088;5.096;2023-05-23T09:03:42;16.20;99.90
65404;DHT22;52014;52.088;5.096;2023-05-23T09:06:09;16.40;99.90
65404;DHT22;52014;52.088;5.096;2023-05-23T09:08:35;16.80;99.90
65404;DHT22;52014;52.088;5.096;2023-05-23T09:11:01;16.70;99.90
65404;DHT22;52014;52.088;5.096;2023-05-23T09:13:30;16.70;99.90
65404;DHT22;52014;52.088;5.096;2023-05-23T09:15:59;16.60;99.90
65404;DHT22;52014;52.088;5.096;2023-05-23T09:18:26;16.40;99.90
65404;DHT22;52014;52.088;5.096;2023-05-23T09:20:51;16.30;99.90
65404;DHT22;52014;52.088;5.096;2023-05-23T09:23:17;16.60;99.90
65404;DHT22;52014;52.088;5.096;2023-05-23T09:25:46;17.00;99.90
65404;DHT22;52014;52.088;5.096;2023-05-23T09:28:11;16.90;99.90
65404;DHT22;52014;52.088;5.096;2023-05-23T09:30:37;16.90;99.90
65404;DHT22;52014;52.088;5.096;2023-05-23T09:33:03;16.80;99.90
65404;DHT22;52014;52.088;5.096;2023-05-23T09:35:29;16.80;99.90
65404;DHT22;52014;52.088;5.096;2023-05-23T09:37:55;17.30;99.90
65404;DHT22;52014;52.088;5.096;2023-05-23T09:40:23;17.10;99.90
65404;DHT22;52014;52.088;5.096;2023-05-23T09:42:53;17.00;99.90
65404;DHT22;52014;52.088;5.096;2023-05-23T09:45:18;17.00;99.90
65404;DHT22;52014;52.088;5.096;2023-05-23T09:47:53;17.50;99.90
65404;DHT22;52014;52.088;5.096;2023-05-23T09:50:18;17.80;99.90
65404;DHT22;52014;52.088;5.096;2023-05-23T09:52:44;17.80;99.90
65404;DHT22;52014;52.088;5.096;2023-05-23T09:55:10;17.90;99.90
65404;DHT22;52014;52.088;5.096;2023-05-23T09:57:38;17.80;99.90
65404;DHT22;52014;52.088;5.096;2023-05-23T10:00:04;17.50;99.90
65404;DHT22;52014;52.088;5.096;2023-05-23T10:05:21;17.30;99.90
65404;DHT22;52014;52.088;5.096;2023-05-23T10:07:52;17.80;99.90
65404;DHT22;52014;52.088;5.096;2023-05-23T10:10:17;18.20;99.90
65404;DHT22;52014;52.088;5.096;2023-05-23T10:12:46;18.30;99.90
65404;DHT22;52014;52.088;5.096;2023-05-23T10:15:12;18.00;99.90
65404;DHT22;52014;52.088;5.096;2023-05-23T10:17:40;17.80;99.90
65404;DHT22;52014;52.088;5.096;2023-05-23T10:20:10;17.70;99.90
65404;DHT22;52014;52.088;5.096;2023-05-23T10:22:38;17.60;99.90
65404;DHT22;52014;52.088;5.096;2023-05-23T10:25:04;17.60;99.90
65404;DHT22;52014;52.088;5.096;2023-05-23T10:27:31;17.60;99.90
65404;DHT22;52014;52.088;5.096;2023-05-23T10:29:58;17.60;99.90
65404;DHT22;52014;52.088;5.096;2023-05-23T10:32:24;17.60;99.90
65404;DHT22;52014;52.088;5.096;2023-05-23T10:34:55;17.60;99.90
65404;DHT22;52014;52.088;5.096;2023-05-23T10:37:25;18.00;99.90
65404;DHT22;52014;52.088;5.096;2023-05-23T10:45:18;17.80;99.90
65404;DHT22;52014;52.088;5.096;2023-05-23T10:47:49;17.70;99.90
65404;DHT22;52014;52.088;5.096;2023-05-23T10:50:16;17.80;99.90
65404;DHT22;52014;52.088;5.096;2023-05-23T10:52:53;17.70;99.90
65404;DHT22;52014;52.088;5.096;2023-05-23T10:55:19;17.80;99.90
65404;DHT22;52014;52.088;5.096;2023-05-23T10:57:45;17.90;99.90
65404;DHT22;52014;52.088;5.096;2023-05-23T11:00:11;17.90;99.90
65404;DHT22;52014;52.088;5.096;2023-05-23T11:02:37;17.90;99.90
65404;DHT22;52014;52.088;5.096;2023-05-23T11:08:05;18.20;99.90
65404;DHT22;52014;52.088;5.096;2023-05-23T11:10:30;18.00;99.90
65404;DHT22;52014;52.088;5.096;2023-05-23T11:13:04;17.90;99.90
65404;DHT22;52014;52.088;5.096;2023-05-23T11:15:40;17.80;99.90
65404;DHT22;52014;52.088;5.096;2023-05-23T11:18:05;17.90;99.90
65404;DHT22;52014;52.088;5.096;2023-05-23T11:20:30;17.80;99.90
65404;DHT22;52014;52.088;5.096;2023-05-23T11:22:59;17.80;99.90
65404;DHT22;52014;52.088;5.096;2023-05-23T11:25:44;17.90;99.90
65404;DHT22;52014;52.088;5.096;2023-05-23T11:28:10;18.00;99.90
65404;DHT22;52014;52.088;5.096;2023-05-23T11:30:36;17.80;99.90
65404;DHT22;52014;52.088;5.096;2023-05-23T11:33:05;17.90;99.90
65404;DHT22;52014;52.088;5.096;2023-05-23T11:35:31;17.90;99.90
65404;DHT22;52014;52.088;5.096;2023-05-23T11:37:57;18.10;99.90
65404;DHT22;52014;52.088;5.096;2023-05-23T11:40:23;18.40;99.90
65404;DHT22;52014;52.088;5.096;2023-05-23T11:42:49;18.60;99.90
65404;DHT22;52014;52.088;5.096;2023-05-23T11:45:18;18.60;99.90
65404;DHT22;52014;52.088;5.096;2023-05-23T11:47:43;18.50;99.90
65404;DHT22;52014;52.088;5.096;2023-05-23T11:50:09;18.50;99.90
65404;DHT22;52014;52.088;5.096;2023-05-23T11:52:35;18.50;99.90
65404;DHT22;52014;52.088;5.096;2023-05-23T11:55:00;18.50;99.90
65404;DHT22;52014;52.088;5.096;2023-05-23T11:57:26;18.40;99.90
65404;DHT22;52014;52.088;5.096;2023-05-23T11:59:52;18.20;99.90
65404;DHT22;52014;52.088;5.096;2023-05-23T12:02:18;17.90;99.90
65404;DHT22;52014;52.088;5.096;2023-05-23T12:04:44;17.80;99.90
65404;DHT22;52014;52.088;5.096;2023-05-23T12:07:10;17.70;99.90
65404;DHT22;52014;52.088;5.096;2023-05-23T12:09:44;17.70;99.90
65404;DHT22;52014;52.088;5.096;2023-05-23T12:12:11;17.80;99.90
65404;DHT22;52014;52.088;5.096;2023-05-23T12:14:36;17.90;99.90
65404;DHT22;52014;52.088;5.096;2023-05-23T12:17:11;17.90;99.90
65404;DHT22;52014;52.088;5.096;2023-05-23T12:19:37;17.70;99.90
65404;DHT22;52014;52.088;5.096;2023-05-23T12:22:06;17.60;99.90
65404;DHT22;52014;52.088;5.096;2023-05-23T12:24:32;17.50;99.90
65404;DHT22;52014;52.088;5.096;2023-05-23T12:26:58;17.60;99.90
65404;DHT22;52014;52.088;5.096;2023-05-23T12:29:30;17.60;99.90
65404;DHT22;52014;52.088;5.096;2023-05-23T12:31:58;17.70;99.90
65404;DHT22;52014;52.088;5.096;2023-05-23T12:34:24;17.90;99.90
65404;DHT22;52014;52.088;5.096;2023-05-23T12:36:53;18.00;99.90
65404;DHT22;52014;52.088;5.096;2023-05-23T12:39:28;18.20;99.90
65404;DHT22;52014;52.088;5.096;2023-05-23T12:41:55;18.10;99.90
65404;DHT22;52014;52.088;5.096;2023-05-23T12:44:31;17.80;99.90
65404;DHT22;52014;52.088;5.096;2023-05-23T12:46:56;17.60;99.90
65404;DHT22;52014;52.088;5.096;2023-05-23T12:49:22;17.50;99.90
65404;DHT22;52014;52.088;5.096;2023-05-23T12:51:47;17.50;99.90
65404;DHT22;52014;52.088;5.096;2023-05-23T12:54:13;17.40;99.90
65404;DHT22;52014;52.088;5.096;2023-05-23T12:56:38;17.50;99.90
65404;DHT22;52014;52.088;5.096;2023-05-23T12:59:04;17.70;99.90
65404;DHT22;52014;52.088;5.096;2023-05-23T13:01:29;17.80;99.90
65404;DHT22;52014;52.088;5.096;2023-05-23T13:03:55;17.90;99.90
65404;DHT22;52014;52.088;5.096;2023-05-23T13:06:21;17.90;99.90
65404;DHT22;52014;52.088;5.096;2023-05-23T13:08:46;17.70;99.90
65404;DHT22;52014;52.088;5.096;2023-05-23T13:11:14;17.80;99.90
65404;DHT22;52014;52.088;5.096;2023-05-23T13:13:40;17.80;99.90
65404;DHT22;52014;52.088;5.096;2023-05-23T13:16:05;17.90;99.90
65404;DHT22;52014;52.088;5.096;2023-05-23T13:18:31;17.80;99.90
65404;DHT22;52014;52.088;5.096;2023-05-23T13:20:56;17.80;99.90
65404;DHT22;52014;52.088;5.096;2023-05-23T13:23:22;17.70;99.90
65404;DHT22;52014;52.088;5.096;2023-05-23T13:25:49;17.60;99.90
65404;DHT22;52014;52.088;5.096;2023-05-23T13:28:15;17.60;99.90
65404;DHT22;52014;52.088;5.096;2023-05-23T13:30:41;17.60;99.90
65404;DHT22;52014;52.088;5.096;2023-05-23T13:33:06;17.60;99.90
65404;DHT22;52014;52.088;5.096;2023-05-23T13:35:32;17.80;99.90
65404;DHT22;52014;52.088;5.096;2023-05-23T13:37:57;17.90;99.90
65404;DHT22;52014;52.088;5.096;2023-05-23T13:40:22;17.90;99.90
65404;DHT22;52014;52.088;5.096;2023-05-23T13:42:49;17.80;99.90
65404;DHT22;52014;52.088;5.096;2023-05-23T13:45:15;17.60;99.90
65404;DHT22;52014;52.088;5.096;2023-05-23T13:47:42;17.60;99.90
65404;DHT22;52014;52.088;5.096;2023-05-23T13:50:07;17.50;99.90
65404;DHT22;52014;52.088;5.096;2023-05-23T13:52:33;17.60;99.90
65404;DHT22;52014;52.088;5.096;2023-05-23T13:54:58;17.50;99.90
65404;DHT22;52014;52.088;5.096;2023-05-23T13:57:25;17.40;99.90
65404;DHT22;52014;52.088;5.096;2023-05-23T13:59:51;17.30;99.90
65404;DHT22;52014;52.088;5.096;2023-05-23T14:02:16;17.30;99.90
65404;DHT22;52014;52.088;5.096;2023-05-23T14:04:42;17.40;99.90
65404;DHT22;52014;52.088;5.096;2023-05-23T14:07:07;17.40;99.90
65404;DHT22;52014;52.088;5.096;2023-05-23T14:09:33;17.40;99.90
65404;DHT22;52014;52.088;5.096;2023-05-23T14:11:58;17.40;99.90
65404;DHT22;52014;52.088;5.096;2023-05-23T14:14:24;17.30;99.90
65404;DHT22;52014;52.088;5.096;2023-05-23T14:16:51;17.30;99.90
65404;DHT22;52014;52.088;5.096;2023-05-23T14:19:16;17.50;99.90
65404;DHT22;52014;52.088;5.096;2023-05-23T14:21:43;17.60;99.90
65404;DHT22;52014;52.088;5.096;2023-05-23T14:24:08;17.70;99.90
65404;DHT22;52014;52.088;5.096;2023-05-23T14:26:33;17.80;99.90
65404;DHT22;52014;52.088;5.096;2023-05-23T14:28:59;17.80;99.90
65404;DHT22;52014;52.088;5.096;2023-05-23T14:31:24;17.60;99.90
65404;DHT22;52014;52.088;5.096;2023-05-23T14:33:50;17.60;99.90
65404;DHT22;52014;52.088;5.096;2023-05-23T14:36:16;17.50;99.90
65404;DHT22;52014;52.088;5.096;2023-05-23T14:38:42;17.50;99.90
65404;DHT22;52014;52.088;5.096;2023-05-23T14:41:10;17.40;99.90
65404;DHT22;52014;52.088;5.096;2023-05-23T14:43:36;17.30;99.90
65404;DHT22;52014;52.088;5.096;2023-05-23T14:46:01;17.20;99.90
65404;DHT22;52014;52.088;5.096;2023-05-23T14:48:27;17.20;99.90
65404;DHT22;52014;52.088;5.096;2023-05-23T14:50:52;17.20;99.90
65404;DHT22;52014;52.088;5.096;2023-05-23T14:53:18;17.20;99.90
65404;DHT22;52014;52.088;5.096;2023-05-23T14:55:46;17.30;99.90
65404;DHT22;52014;52.088;5.096;2023-05-23T14:58:12;17.20;99.90
65404;DHT22;52014;52.088;5.096;2023-05-23T15:00:37;17.10;99.90
65404;DHT22;52014;52.088;5.096;2023-05-23T15:03:05;17.10;99.90
65404;DHT22;52014;52.088;5.096;2023-05-23T15:05:31;17.10;99.90
65404;DHT22;52014;52.088;5.096;2023-05-23T15:07:57;17.20;99.90
65404;DHT22;52014;52.088;5.096;2023-05-23T15:10:22;17.30;99.90
65404;DHT22;52014;52.088;5.096;2023-05-23T15:12:48;17.20;99.90
65404;DHT22;52014;52.088;5.096;2023-05-23T15:15:13;17.10;99.90
65404;DHT22;52014;52.088;5.096;2023-05-23T15:17:40;17.00;99.90
65404;DHT22;52014;52.088;5.096;2023-05-23T15:20:06;17.00;99.90
65404;DHT22;52014;52.088;5.096;2023-05-23T15:22:32;17.10;99.90
65404;DHT22;52014;52.088;5.096;2023-05-23T15:24:58;17.10;99.90
65404;DHT22;52014;52.088;5.096;2023-05-23T15:27:24;17.00;99.90
65404;DHT22;52014;52.088;5.096;2023-05-23T15:29:50;17.00;99.90
65404;DHT22;52014;52.088;5.096;2023-05-23T15:32:15;16.90;99.90
65404;DHT22;52014;52.088;5.096;2023-05-23T15:34:41;16.90;99.90
65404;DHT22;52014;52.088;5.096;2023-05-23T15:37:06;16.80;99.90